X  Cerrar Datos meteorológicos de aviación METAR     LEAL Alicante-Elche Miguel Hernández Airport
Temperatura
14°C Temperatura
5°C Punto de rocío
55% Humedad



Viento
13 KM/H
8 MPH
4 M/S
7 NUDO



140°
SE
Condiciones actuales

Claro Claro
Presión 1004.06 (hPa) - 29.65 (inHg)
Visibilidad 6 (milla) - 9.7 (km)
Aeropuerto
Código de aeropuerto LEAL

localidad: Alicante-Elche Miguel Hernández Airport
Distancia: 30 (km)

Metar:
LEAL 260300Z 14007KT 100V160 CAVOK 14/05 Q1004 NOSIG

Hora: 26-02-2024 04:00 CET